CheckWX is a tool to help pilots better visualize weather data.  It is not intended as a substitute for an official pre-flight weather briefing.

21:38:46 UTC

KOJA METAR
Thomas P Stafford Airport
Weatherford, Oklahoma, USA
Current

24 mins ago

KOJA 242115Z AUTO 18012G22KT 10SM BKN050 29/18 A2976 RMK AO2
Observed
May-24 @ 21:15 UTC
Wind
  • 180° at 12 KTS
  • Gusting to 22 KTS
Visibility
Flight Rules
VFR
Cloud Levels
  • Broken at 5,000' AGL
Temperature
29°C / 84°F
Dewpoint
18°C / 64°F
Humidity
51%
Altimeter
29.76" Hg
Pressure
1007.82 hPa
Previous

44 mins ago

KOJA 242055Z AUTO 19011G17KT 10SM SCT050 29/18 A2976 RMK AO2
Observed
May-24 @ 20:55 UTC
Wind
  • 190° at 11 KTS
  • Gusting to 17 KTS
Visibility
Flight Rules
VFR
Cloud Levels
  • Scattered at 5,000' AGL
Temperature
29°C / 84°F
Dewpoint
18°C / 64°F
Humidity
51%
Altimeter
29.76" Hg
Pressure
1007.82 hPa
Previous

1 hour ago

KOJA 242035Z AUTO 18015G24KT 10SM SCT050 30/18 A2977 RMK AO2
Observed
May-24 @ 20:35 UTC
Wind
  • 180° at 15 KTS
  • Gusting to 24 KTS
Visibility
Flight Rules
VFR
Cloud Levels
  • Scattered at 5,000' AGL
Temperature
30°C / 86°F
Dewpoint
18°C / 64°F
Humidity
49%
Altimeter
29.77" Hg
Pressure
1008.12 hPa